Time;durP1;ratioP1;P1;durP2;ratioP2;P2;SDS_P1;SDS_P2;PMS_P1;PMS_P2;Temp;Humidity;BMP_temperature;BMP_pressure;BME280_temperature;BME280_humidity;BME280_pressure;Samples;Min_cycle;Max_cycle;Signal;HPM_P1;HPM_P2
2022/05/17 00:01:26;;;;;;;6.33;2.60;;;17.80;99.90;;;;;;5075092;28;20210;-87
2022/05/17 00:03:54;;;;;;;7.50;2.13;;;17.70;99.90;;;;;;5074754;28;20706;-85
2022/05/17 00:06:21;;;;;;;3.70;2.23;;;17.70;99.90;;;;;;5074505;28;20653;-84
2022/05/17 00:08:48;;;;;;;6.30;2.40;;;17.80;99.90;;;;;;5074939;28;20208;-86
2022/05/17 00:11:15;;;;;;;6.33;2.60;;;17.90;99.90;;;;;;5074897;28;20209;-86
2022/05/17 00:13:42;;;;;;;5.47;2.10;;;17.70;99.90;;;;;;5074554;28;20201;-85
2022/05/17 00:16:09;;;;;;;3.50;2.07;;;17.80;99.90;;;;;;5074609;28;20557;-83
2022/05/17 00:18:36;;;;;;;5.73;2.20;;;17.70;99.90;;;;;;5074610;28;20195;-86
2022/05/17 00:21:05;;;;;;;8.90;2.43;;;17.60;99.90;;;;;;5074839;28;20213;-85
2022/05/17 00:23:32;;;;;;;6.93;2.63;;;17.60;99.90;;;;;;5074844;28;20194;-84
2022/05/17 00:25:58;;;;;;;3.77;2.00;;;17.50;99.90;;;;;;5074191;28;20229;-86
2022/05/17 00:28:26;;;;;;;7.20;2.13;;;17.50;99.90;;;;;;5074559;28;20197;-86
2022/05/17 00:30:52;;;;;;;7.67;2.40;;;17.70;99.90;;;;;;5074542;28;20212;-87
2022/05/17 00:33:21;;;;;;;4.47;2.23;;;17.80;99.90;;;;;;5074118;28;20225;-84
2022/05/17 00:35:48;;;;;;;5.67;2.20;;;17.90;99.90;;;;;;5074760;28;20230;-86
2022/05/17 00:38:16;;;;;;;4.97;2.00;;;17.90;99.90;;;;;;5074071;28;20773;-82
2022/05/17 00:40:43;;;;;;;10.67;2.30;;;17.90;99.90;;;;;;5074373;28;20192;-86
2022/05/17 00:43:13;;;;;;;7.17;2.20;;;17.90;99.90;;;;;;5074080;28;20202;-85
2022/05/17 00:45:44;;;;;;;5.83;2.20;;;17.90;99.90;;;;;;5074253;28;20236;-83
2022/05/17 00:48:11;;;;;;;4.30;1.83;;;18.00;99.90;;;;;;5074104;28;20216;-82
2022/05/17 00:50:42;;;;;;;4.73;2.27;;;18.00;99.90;;;;;;5074539;28;20201;-86
2022/05/17 00:53:14;;;;;;;8.60;2.30;;;18.00;99.90;;;;;;5074259;28;20190;-86
2022/05/17 00:55:46;;;;;;;4.20;2.10;;;18.00;99.90;;;;;;5073978;28;20209;-88
2022/05/17 00:58:17;;;;;;;5.93;2.20;;;18.20;99.90;;;;;;5074808;28;20190;-85
2022/05/17 01:00:48;;;;;;;4.23;1.97;;;18.20;99.90;;;;;;5075826;28;20194;-87
2022/05/17 01:03:18;;;;;;;6.70;2.27;;;18.20;99.90;;;;;;5081844;28;20202;-88
2022/05/17 01:05:51;;;;;;;8.13;2.00;;;18.10;99.90;;;;;;5077484;28;20237;-85
2022/05/17 01:08:18;;;;;;;5.70;1.80;;;18.10;99.90;;;;;;5074721;28;20227;-86
2022/05/17 01:10:49;;;;;;;5.93;2.30;;;18.10;99.90;;;;;;5074347;28;20236;-87
2022/05/17 01:16:02;;;;;;;4.57;2.20;;;18.00;99.90;;;;;;5074213;28;20197;-87
2022/05/17 01:18:34;;;;;;;4.97;2.33;;;18.00;99.90;;;;;;5074095;28;20201;-84
2022/05/17 01:21:03;;;;;;;6.27;2.20;;;17.90;99.90;;;;;;5074473;28;20190;-87
2022/05/17 01:23:33;;;;;;;6.87;1.77;;;17.90;99.90;;;;;;5074170;28;20255;-84
2022/05/17 01:26:00;;;;;;;5.60;2.20;;;17.90;99.90;;;;;;5073009;28;20595;-83
2022/05/17 01:28:31;;;;;;;3.70;2.50;;;18.00;99.90;;;;;;5074330;28;20194;-86
2022/05/17 01:31:05;;;;;;;5.93;2.23;;;17.80;99.90;;;;;;5074210;28;20190;-87
2022/05/17 01:33:35;;;;;;;6.73;2.30;;;17.80;99.90;;;;;;5073922;28;20276;-84
2022/05/17 01:36:12;;;;;;;4.43;2.07;;;17.60;99.90;;;;;;5074219;28;20194;-87
2022/05/17 01:38:45;;;;;;;4.37;2.10;;;17.70;99.90;;;;;;5074272;28;20200;-83
2022/05/17 01:41:15;;;;;;;4.43;2.40;;;17.60;99.90;;;;;;5074318;28;20280;-81
2022/05/17 01:43:44;;;;;;;7.13;2.60;;;17.50;99.90;;;;;;5073961;28;20192;-85
2022/05/17 01:46:11;;;;;;;5.27;2.67;;;17.50;99.90;;;;;;5073371;28;20244;-87
2022/05/17 01:48:41;;;;;;;7.43;2.47;;;17.50;99.90;;;;;;5074088;28;20208;-85
2022/05/17 01:51:12;;;;;;;4.33;2.23;;;17.60;99.90;;;;;;5073491;28;20204;-84
2022/05/17 01:53:40;;;;;;;8.63;2.57;;;17.50;99.90;;;;;;5073961;28;20202;-85
2022/05/17 01:56:09;;;;;;;5.33;2.23;;;17.50;99.90;;;;;;5073865;28;20324;-85
2022/05/17 01:58:37;;;;;;;7.00;2.40;;;17.50;99.90;;;;;;5073667;28;20664;-85
2022/05/17 02:01:11;;;;;;;7.67;2.47;;;17.60;99.90;;;;;;5073809;28;20191;-87
2022/05/17 02:03:40;;;;;;;5.97;2.57;;;17.50;99.90;;;;;;5073874;28;20201;-83
2022/05/17 02:06:11;;;;;;;2.57;2.00;;;17.70;99.90;;;;;;5073893;28;20222;-85
2022/05/17 02:08:44;;;;;;;3.93;1.83;;;17.70;99.90;;;;;;5073907;28;20557;-82
2022/05/17 02:11:11;;;;;;;6.23;2.53;;;17.60;99.90;;;;;;5075188;28;20210;-86
2022/05/17 02:13:38;;;;;;;4.60;2.30;;;17.50;99.90;;;;;;5078786;28;20186;-85
2022/05/17 02:16:06;;;;;;;10.47;2.57;;;17.40;99.90;;;;;;5078043;28;20209;-83
2022/05/17 02:18:35;;;;;;;6.33;2.50;;;17.30;99.90;;;;;;5078779;28;20196;-84
2022/05/17 02:21:02;;;;;;;6.33;2.53;;;17.10;99.90;;;;;;5079021;28;20201;-84
2022/05/17 02:23:31;;;;;;;5.50;2.30;;;17.10;99.90;;;;;;5079249;28;20194;-82
2022/05/17 02:25:58;;;;;;;6.97;2.40;;;17.00;99.90;;;;;;5079935;28;20531;-88
2022/05/17 02:28:25;;;;;;;9.20;2.87;;;16.80;99.90;;;;;;5075819;28;20204;-86
2022/05/17 02:30:53;;;;;;;4.50;2.20;;;16.80;99.90;;;;;;5073864;28;20202;-88
2022/05/17 02:33:19;;;;;;;8.27;2.87;;;16.80;99.90;;;;;;5075406;28;20228;-85
2022/05/17 02:35:47;;;;;;;7.07;2.97;;;16.70;99.90;;;;;;5075207;28;20196;-89
2022/05/17 02:38:16;;;;;;;4.87;2.37;;;16.90;99.90;;;;;;5078006;28;20200;-86
2022/05/17 02:40:45;;;;;;;5.73;2.23;;;17.10;99.90;;;;;;5079589;28;20189;-87
2022/05/17 02:43:14;;;;;;;4.47;2.40;;;17.20;99.90;;;;;;5079104;28;20212;-87
2022/05/17 02:45:41;;;;;;;6.60;2.30;;;17.20;99.90;;;;;;5078347;28;20241;-88
2022/05/17 02:48:09;;;;;;;6.37;2.60;;;17.30;99.90;;;;;;5077849;28;20207;-85
2022/05/17 02:50:36;;;;;;;8.10;2.87;;;17.30;99.90;;;;;;5077556;28;20216;-87
2022/05/17 02:53:03;;;;;;;3.67;2.10;;;17.40;99.90;;;;;;5098283;28;20205;-85
2022/05/17 02:55:31;;;;;;;2.17;1.97;;;17.50;99.90;;;;;;5105143;28;20212;-85
2022/05/17 02:58:05;;;;;;;5.97;2.40;;;17.60;99.90;;;;;;5100094;28;20220;-85
2022/05/17 03:00:32;;;;;;;5.10;2.37;;;17.70;99.90;;;;;;5097922;28;20212;-86
2022/05/17 03:02:59;;;;;;;6.67;2.97;;;17.80;99.90;;;;;;5097877;28;20197;-86
2022/05/17 03:05:31;;;;;;;3.87;2.47;;;17.70;99.90;;;;;;5097331;28;20216;-86
2022/05/17 03:08:00;;;;;;;6.90;2.23;;;17.60;99.90;;;;;;5097160;28;20193;-83
2022/05/17 03:10:30;;;;;;;6.10;2.47;;;17.60;99.90;;;;;;5096705;28;20196;-86
2022/05/17 03:13:03;;;;;;;7.47;2.60;;;17.60;99.90;;;;;;5096181;28;20430;-86
2022/05/17 03:15:37;;;;;;;6.77;2.53;;;17.70;99.90;;;;;;5096625;28;20189;-87
2022/05/17 03:18:04;;;;;;;5.27;2.50;;;17.70;99.90;;;;;;5097152;28;20583;-87
2022/05/17 03:20:32;;;;;;;5.60;2.50;;;17.60;99.90;;;;;;5096983;28;20543;-87
2022/05/17 03:22:59;;;;;;;7.57;2.67;;;17.50;99.90;;;;;;5097325;28;20208;-83
2022/05/17 03:25:27;;;;;;;4.73;2.20;;;17.40;99.90;;;;;;5096112;28;20212;-82
2022/05/17 03:27:56;;;;;;;3.47;2.60;;;17.30;99.90;;;;;;5096196;28;20200;-84
2022/05/17 03:30:29;;;;;;;7.53;2.60;;;17.30;99.90;;;;;;5096562;28;20202;-84
2022/05/17 03:32:57;;;;;;;6.93;2.60;;;17.20;99.90;;;;;;5098974;28;20218;-86
2022/05/17 03:35:30;;;;;;;7.23;4.10;;;17.00;99.90;;;;;;5098329;28;20557;-83
2022/05/17 03:37:56;;;;;;;5.22;2.65;;;17.00;99.90;;;;;;5094690;28;20441;-79
2022/05/17 03:40:25;;;;;;;4.97;2.37;;;17.10;99.90;;;;;;5095952;28;20205;-80
2022/05/17 03:42:52;;;;;;;7.53;3.17;;;17.20;99.90;;;;;;5094753;28;20203;-79
2022/05/17 03:45:20;;;;;;;7.40;2.60;;;17.20;99.90;;;;;;5095250;28;20227;-81
2022/05/17 03:47:47;;;;;;;7.43;2.40;;;17.20;99.90;;;;;;5095279;28;20200;-81
2022/05/17 03:50:17;;;;;;;4.63;2.30;;;17.10;99.90;;;;;;5094109;28;20200;-84
2022/05/17 03:52:44;;;;;;;5.37;2.40;;;17.00;99.90;;;;;;5095096;28;20292;-78
2022/05/17 03:55:12;;;;;;;4.77;2.07;;;17.10;99.90;;;;;;5094816;28;20254;-78
2022/05/17 03:57:38;;;;;;;5.03;2.50;;;17.20;99.90;;;;;;5094554;28;20213;-80
2022/05/17 04:00:08;;;;;;;4.53;2.40;;;17.20;99.90;;;;;;5094902;28;20205;-78
2022/05/17 04:02:37;;;;;;;7.73;2.50;;;17.20;99.90;;;;;;5094591;28;20550;-78
2022/05/17 04:05:04;;;;;;;3.63;2.23;;;17.40;99.90;;;;;;5094403;28;20668;-78
2022/05/17 04:07:32;;;;;;;6.27;2.67;;;17.50;99.90;;;;;;5094776;28;20195;-83
2022/05/17 04:09:59;;;;;;;5.17;2.00;;;17.60;99.90;;;;;;5096825;28;20585;-80
2022/05/17 04:12:26;;;;;;;6.80;2.60;;;17.50;99.90;;;;;;5095811;28;20213;-84
2022/05/17 04:14:55;;;;;;;4.70;2.13;;;17.40;99.90;;;;;;5095183;28;20189;-83
2022/05/17 04:17:23;;;;;;;8.50;2.50;;;17.50;99.90;;;;;;5095074;28;20197;-84
2022/05/17 04:19:50;;;;;;;4.80;2.00;;;17.60;99.90;;;;;;5095227;28;20199;-84
2022/05/17 04:22:17;;;;;;;5.30;2.40;;;17.70;99.90;;;;;;5094802;28;20201;-82
2022/05/17 04:24:45;;;;;;;7.73;2.67;;;17.80;99.90;;;;;;5094375;28;20430;-83
2022/05/17 04:27:13;;;;;;;6.80;2.70;;;18.00;99.90;;;;;;5094377;28;20484;-77
2022/05/17 04:29:41;;;;;;;5.53;2.03;;;18.10;99.90;;;;;;5094971;28;20196;-82
2022/05/17 04:32:09;;;;;;;8.53;2.50;;;18.10;99.90;;;;;;5094449;28;20232;-84
2022/05/17 04:34:36;;;;;;;6.00;2.37;;;18.10;99.90;;;;;;5094569;28;20657;-80
2022/05/17 04:37:04;;;;;;;9.17;3.00;;;18.30;99.90;;;;;;5094387;28;20217;-81
2022/05/17 04:39:30;;;;;;;9.63;3.47;;;18.30;99.90;;;;;;5094354;28;20194;-79
2022/05/17 04:41:59;;;;;;;9.43;3.17;;;18.30;99.90;;;;;;5093975;28;20206;-78
2022/05/17 04:44:26;;;;;;;9.93;3.03;;;18.40;99.90;;;;;;5094591;28;20218;-80
2022/05/17 04:46:53;;;;;;;7.87;2.63;;;18.30;99.90;;;;;;5093966;28;20228;-79
2022/05/17 04:49:20;;;;;;;7.63;3.08;;;18.30;99.90;;;;;;5092332;28;20430;-79
2022/05/17 04:51:50;;;;;;;12.67;3.10;;;18.20;99.90;;;;;;5094440;28;20199;-81
2022/05/17 04:54:17;;;;;;;4.77;2.63;;;18.20;99.90;;;;;;5094728;28;20198;-80
2022/05/17 04:56:44;;;;;;;8.83;3.10;;;18.30;99.90;;;;;;5094276;28;20694;-81
2022/05/17 04:59:13;;;;;;;5.77;2.50;;;18.30;99.90;;;;;;5093659;28;20201;-81
2022/05/17 05:01:40;;;;;;;9.67;2.80;;;18.30;99.90;;;;;;5083810;28;20211;-78
2022/05/17 05:04:08;;;;;;;6.63;2.90;;;18.30;99.90;;;;;;5073192;28;20215;-78
2022/05/17 05:06:34;;;;;;;7.00;2.77;;;18.30;99.90;;;;;;5072444;28;20230;-80
2022/05/17 05:09:01;;;;;;;10.17;3.10;;;18.30;99.90;;;;;;5072832;28;20190;-79
2022/05/17 05:11:30;;;;;;;9.50;3.00;;;18.30;99.90;;;;;;5073368;28;20201;-79
2022/05/17 05:13:57;;;;;;;8.30;3.47;;;18.30;99.90;;;;;;5073407;28;20210;-78
2022/05/17 05:16:25;;;;;;;8.37;3.27;;;18.40;99.90;;;;;;5073395;28;20198;-81
2022/05/17 05:18:52;;;;;;;9.00;3.80;;;18.30;99.90;;;;;;5073942;28;20195;-79
2022/05/17 05:21:19;;;;;;;13.70;3.70;;;18.30;99.90;;;;;;5073671;28;20638;-78
2022/05/17 05:23:46;;;;;;;13.53;5.03;;;18.30;99.90;;;;;;5073103;28;20215;-80
2022/05/17 05:26:14;;;;;;;8.67;3.67;;;18.50;99.90;;;;;;5073332;28;20225;-77
2022/05/17 05:28:42;;;;;;;7.90;3.73;;;18.20;99.90;;;;;;5073379;28;20647;-84
2022/05/17 05:31:10;;;;;;;5.50;3.93;;;18.00;99.90;;;;;;5073357;28;20699;-79
2022/05/17 05:33:39;;;;;;;7.60;3.50;;;17.70;99.90;;;;;;5073442;28;20225;-81
2022/05/17 05:36:07;;;;;;;8.93;4.28;;;17.70;99.90;;;;;;5075794;28;20911;-86
2022/05/17 05:38:41;;;;;;;7.37;3.57;;;17.70;99.90;;;;;;5073479;28;20259;-86
2022/05/17 05:41:11;;;;;;;6.40;3.60;;;17.60;99.90;;;;;;5073639;28;20194;-85
2022/05/17 05:43:38;;;;;;;14.33;4.60;;;17.50;99.90;;;;;;5073056;28;20190;-78
2022/05/17 05:46:04;;;;;;;11.67;4.10;;;17.40;99.90;;;;;;5072689;28;20348;-79
2022/05/17 05:48:32;;;;;;;8.00;3.53;;;17.50;99.90;;;;;;5073231;28;20228;-79
2022/05/17 05:51:01;;;;;;;8.53;4.00;;;17.60;99.90;;;;;;5072928;28;20305;-79
2022/05/17 05:53:29;;;;;;;10.00;4.10;;;17.70;99.90;;;;;;5072875;28;20197;-78
2022/05/17 05:56:01;;;;;;;9.60;4.10;;;17.90;99.90;;;;;;5073069;28;20202;-77
2022/05/17 05:58:29;;;;;;;17.40;4.63;;;17.90;99.90;;;;;;5073631;28;20255;-78
2022/05/17 06:00:55;;;;;;;16.87;6.00;;;18.00;99.90;;;;;;5072023;28;20209;-84
2022/05/17 06:03:22;;;;;;;11.97;4.73;;;18.00;99.90;;;;;;5072746;28;20201;-78
2022/05/17 06:05:49;;;;;;;21.93;6.90;;;18.00;99.90;;;;;;5072749;28;20216;-81
2022/05/17 06:08:18;;;;;;;16.13;6.70;;;18.00;99.90;;;;;;5072438;28;20552;-80
2022/05/17 06:10:45;;;;;;;9.63;4.10;;;18.00;99.90;;;;;;5072810;28;20558;-81
2022/05/17 06:13:14;;;;;;;10.77;4.27;;;18.00;99.90;;;;;;5075617;28;20205;-78
2022/05/17 06:15:42;;;;;;;7.23;3.73;;;18.00;99.90;;;;;;5076789;28;20554;-77
2022/05/17 06:18:09;;;;;;;9.73;4.37;;;18.00;99.90;;;;;;5077945;28;20209;-78
2022/05/17 06:20:38;;;;;;;9.07;3.77;;;18.30;99.90;;;;;;5076788;28;20198;-78
2022/05/17 06:23:05;;;;;;;6.80;3.40;;;18.20;99.90;;;;;;5076377;28;20191;-78
2022/05/17 06:25:34;;;;;;;12.30;4.37;;;18.50;99.90;;;;;;5076325;28;20205;-76
2022/05/17 06:28:01;;;;;;;10.93;3.70;;;18.70;99.90;;;;;;5076360;28;20241;-78
2022/05/17 06:30:33;;;;;;;12.63;4.50;;;18.50;99.90;;;;;;5076742;28;20205;-79
2022/05/17 06:33:01;;;;;;;10.77;4.13;;;18.60;99.90;;;;;;5077139;28;20228;-78
2022/05/17 06:35:28;;;;;;;10.83;3.80;;;18.60;99.90;;;;;;5092349;28;20187;-79
2022/05/17 06:37:55;;;;;;;8.00;3.80;;;19.00;99.90;;;;;;5095409;28;20201;-79
2022/05/17 06:40:21;;;;;;;8.30;3.87;;;18.90;99.90;;;;;;5096724;28;20207;-78
2022/05/17 06:42:55;;;;;;;7.87;3.80;;;18.90;99.90;;;;;;5096583;28;20202;-80
2022/05/17 06:45:22;;;;;;;8.30;3.90;;;19.00;99.90;;;;;;5096868;28;20200;-84
2022/05/17 06:47:50;;;;;;;8.30;3.83;;;18.80;99.90;;;;;;5096591;28;20233;-88
2022/05/17 06:50:17;;;;;;;6.57;3.30;;;18.60;99.90;;;;;;5097097;28;20215;-81
2022/05/17 06:52:50;;;;;;;9.77;3.73;;;18.70;99.90;;;;;;5097096;28;20192;-85
2022/05/17 06:55:16;;;;;;;8.90;3.40;;;18.70;99.90;;;;;;5098356;28;20241;-84
2022/05/17 06:57:44;;;;;;;13.73;3.93;;;18.80;99.90;;;;;;5096308;28;20213;-81
2022/05/17 07:00:14;;;;;;;13.57;5.00;;;19.10;99.90;;;;;;5096602;28;20202;-84
2022/05/17 07:02:41;;;;;;;7.57;3.93;;;19.40;99.90;;;;;;5096619;28;20209;-84
2022/05/17 07:05:14;;;;;;;9.27;3.53;;;19.60;99.90;;;;;;5096706;28;20200;-79
2022/05/17 07:07:41;;;;;;;10.13;3.47;;;19.80;99.90;;;;;;5096558;28;20236;-79
2022/05/17 07:13:09;;;;;;;10.17;3.50;;;20.10;99.90;;;;;;5096360;28;20195;-86
2022/05/17 07:15:37;;;;;;;10.37;3.87;;;20.20;99.90;;;;;;5096147;28;20636;-79
2022/05/17 07:18:06;;;;;;;8.93;3.50;;;19.90;99.90;;;;;;5096533;28;20220;-80
2022/05/17 07:20:34;;;;;;;9.43;3.50;;;20.10;99.90;;;;;;5095977;28;20535;-85
2022/05/17 07:23:00;;;;;;;9.37;3.73;;;20.00;99.90;;;;;;5095795;28;20559;-87
2022/05/17 07:25:27;;;;;;;10.33;3.80;;;19.90;99.90;;;;;;5096421;28;20193;-87
2022/05/17 07:27:54;;;;;;;8.30;3.67;;;20.00;99.90;;;;;;5095641;28;20570;-82
2022/05/17 07:30:28;;;;;;;9.07;3.63;;;20.30;99.90;;;;;;5095657;28;20201;-81
2022/05/17 07:32:57;;;;;;;9.37;3.30;;;20.10;99.90;;;;;;5095019;28;20582;-83
2022/05/17 07:35:24;;;;;;;8.67;3.90;;;20.10;99.90;;;;;;5094548;28;20423;-82
2022/05/17 07:37:51;;;;;;;9.70;3.47;;;20.10;99.90;;;;;;5095526;28;20186;-81
2022/05/17 07:40:19;;;;;;;6.70;3.50;;;20.00;99.90;;;;;;5095773;28;20219;-80
2022/05/17 07:42:46;;;;;;;8.73;3.50;;;19.90;99.90;;;;;;5095661;28;20185;-81
2022/05/17 07:45:15;;;;;;;13.23;3.73;;;19.90;99.90;;;;;;5095209;28;20209;-80
2022/05/17 07:47:42;;;;;;;12.43;3.90;;;20.00;99.90;;;;;;5094877;28;20604;-80
2022/05/17 07:50:11;;;;;;;10.97;4.07;;;20.40;99.90;;;;;;5095001;28;20213;-80
2022/05/17 07:52:38;;;;;;;8.27;3.97;;;20.50;99.90;;;;;;5094955;28;20637;-81
2022/05/17 07:55:06;;;;;;;8.10;4.23;;;20.90;99.90;;;;;;5094897;28;20298;-81
2022/05/17 07:57:34;;;;;;;9.45;4.20;;;20.90;99.90;;;;;;5094340;28;20422;-82
2022/05/17 08:00:05;;;;;;;12.00;4.50;;;21.20;99.90;;;;;;5095100;28;20207;-84
2022/05/17 08:02:32;;;;;;;8.23;4.30;;;21.30;99.90;;;;;;5094969;28;20199;-83
2022/05/17 08:05:00;;;;;;;9.77;4.20;;;21.40;99.90;;;;;;5094675;28;20191;-83
2022/05/17 08:07:28;;;;;;;8.47;4.33;;;21.60;99.90;;;;;;5094596;28;20226;-82
2022/05/17 08:09:55;;;;;;;10.83;4.40;;;21.90;99.90;;;;;;5095049;28;20202;-82
2022/05/17 08:12:21;;;;;;;9.23;4.43;;;21.80;99.90;;;;;;5094515;28;20203;-82
2022/05/17 08:14:48;;;;;;;10.23;4.10;;;22.00;99.90;;;;;;5094638;28;20207;-81
2022/05/17 08:17:16;;;;;;;9.50;4.43;;;22.30;99.90;;;;;;5093907;28;20261;-84
2022/05/17 08:19:42;;;;;;;10.53;4.13;;;22.30;99.90;;;;;;5094830;28;20190;-82
2022/05/17 08:22:14;;;;;;;9.57;4.70;;;22.40;99.90;;;;;;5094177;28;20215;-82
2022/05/17 08:27:36;;;;;;;9.80;4.90;;;22.50;99.90;;;;;;5094185;28;20248;-82
2022/05/17 08:30:08;;;;;;;7.30;4.90;;;22.50;99.90;;;;;;5094373;28;20645;-82
2022/05/17 08:35:19;;;;;;;10.90;5.00;;;22.50;99.90;;;;;;5093920;28;20210;-83
2022/05/17 08:37:46;;;;;;;18.57;5.40;;;22.60;99.90;;;;;;5098005;28;20193;-82
2022/05/17 08:40:20;;;;;;;7.00;4.40;;;22.70;99.90;;;;;;5094050;28;20652;-82
2022/05/17 08:43:00;;;;;;;9.83;4.90;;;22.90;99.90;;;;;;5093900;28;20208;-82
2022/05/17 08:45:34;;;;;;;9.23;4.97;;;23.10;99.90;;;;;;5095994;28;20201;-82
2022/05/17 08:48:04;;;;;;;7.87;4.30;;;23.30;99.90;;;;;;5114180;28;20231;-83
2022/05/17 08:50:34;;;;;;;8.23;5.30;;;23.60;99.90;;;;;;5104577;28;20196;-82
2022/05/17 08:53:02;;;;;;;7.83;4.87;;;23.30;99.90;;;;;;5093710;28;20204;-82
2022/05/17 08:55:33;;;;;;;7.40;4.70;;;23.20;99.90;;;;;;5112332;28;20201;-83
2022/05/17 08:58:06;;;;;;;10.73;5.13;;;23.40;99.90;;;;;;5113921;28;20581;-82
2022/05/17 09:00:39;;;;;;;9.10;5.00;;;23.40;99.90;;;;;;5112406;28;20605;-85
2022/05/17 09:03:18;;;;;;;10.60;5.13;;;23.60;99.90;;;;;;5113527;28;20220;-80
2022/05/17 09:05:50;;;;;;;8.27;4.93;;;23.70;99.90;;;;;;5112961;28;20200;-82
2022/05/17 09:08:28;;;;;;;6.00;4.90;;;23.70;99.90;;;;;;5111774;28;20455;-82
2022/05/17 09:11:00;;;;;;;7.93;5.07;;;24.00;99.90;;;;;;5114144;28;20210;-82
2022/05/17 09:13:33;;;;;;;6.63;5.33;;;23.90;99.90;;;;;;5113695;28;20191;-79
2022/05/17 09:16:01;;;;;;;9.83;5.47;;;23.90;99.90;;;;;;5113315;28;20207;-82
2022/05/17 09:18:31;;;;;;;8.20;4.93;;;23.90;99.90;;;;;;5113746;28;20555;-82
2022/05/17 09:20:58;;;;;;;8.30;5.27;;;23.90;99.90;;;;;;5096321;28;20197;-82
2022/05/17 09:23:25;;;;;;;8.77;4.93;;;23.90;99.90;;;;;;5093544;28;20679;-82
2022/05/17 09:26:05;;;;;;;6.83;4.57;;;23.90;99.90;;;;;;5092277;28;20197;-81
2022/05/17 09:28:47;;;;;;;12.77;5.33;;;24.20;99.90;;;;;;5087896;28;20217;-82
2022/05/17 09:31:17;;;;;;;8.87;5.50;;;24.40;99.90;;;;;;5091049;28;20671;-81
2022/05/17 09:33:44;;;;;;;6.23;5.10;;;24.40;99.90;;;;;;5092315;28;20310;-81
2022/05/17 09:36:18;;;;;;;6.33;4.20;;;24.40;99.90;;;;;;5092852;28;20683;-79
2022/05/17 09:38:47;;;;;;;7.13;4.07;;;24.50;99.90;;;;;;5093501;28;20250;-82
2022/05/17 09:41:19;;;;;;;23.53;5.03;;;24.60;99.90;;;;;;5093853;28;20189;-81
2022/05/17 09:43:52;;;;;;;7.33;4.07;;;24.70;99.90;;;;;;5092471;28;20200;-81
2022/05/17 09:46:29;;;;;;;7.03;3.90;;;24.70;99.90;;;;;;5092410;28;20300;-82
2022/05/17 09:54:43;;;;;;;12.23;3.92;;;24.60;99.90;;;;;;5094676;28;20417;-82
2022/05/17 09:57:18;;;;;;;9.63;4.40;;;24.80;99.90;;;;;;5096873;28;20580;-82
2022/05/17 09:59:48;;;;;;;7.57;3.03;;;24.90;99.90;;;;;;5089182;28;20201;-86
2022/05/17 10:02:41;;;;;;;3.87;2.30;;;25.00;99.90;;;;;;5097880;28;20205;-86
2022/05/17 10:05:21;;;;;;;14.47;2.30;;;25.10;99.90;;;;;;5098249;28;20205;-88
2022/05/17 10:07:54;;;;;;;7.33;2.50;;;25.10;99.90;;;;;;5100795;28;20695;-86
2022/05/17 10:10:25;;;;;;;3.40;2.20;;;25.20;99.90;;;;;;5099558;28;20201;-86
2022/05/17 10:12:57;;;;;;;28.33;3.47;;;25.40;99.90;;;;;;5098237;28;20206;-87
2022/05/17 10:15:26;;;;;;;4.87;1.80;;;25.50;99.90;;;;;;5098702;28;20189;-86
2022/05/17 10:17:57;;;;;;;6.33;2.00;;;25.50;99.90;;;;;;5101148;28;20236;-87
2022/05/17 10:20:30;;;;;;;4.07;2.10;;;25.40;99.90;;;;;;5098872;28;20212;-86
2022/05/17 10:23:02;;;;;;;16.40;2.50;;;25.50;99.90;;;;;;5098757;28;20209;-86
2022/05/17 10:25:36;;;;;;;3.53;2.30;;;25.50;99.90;;;;;;5098792;28;20636;-85
2022/05/17 10:28:10;;;;;;;3.03;1.97;;;25.70;99.90;;;;;;5096903;28;20213;-85
2022/05/17 10:30:44;;;;;;;6.47;2.07;;;25.80;99.90;;;;;;5097069;28;20219;-86
2022/05/17 10:33:15;;;;;;;2.80;1.53;;;25.90;99.90;;;;;;5096864;28;20228;-87
2022/05/17 10:35:47;;;;;;;5.00;2.23;;;25.90;99.90;;;;;;5096967;28;20209;-88
2022/05/17 10:38:18;;;;;;;2.80;1.77;;;25.90;99.90;;;;;;5097557;28;20206;-85
2022/05/17 10:40:47;;;;;;;4.83;2.70;;;25.90;99.90;;;;;;5097411;28;20198;-88
2022/05/17 10:43:21;;;;;;;4.97;2.10;;;26.00;99.90;;;;;;5097465;28;20197;-87
2022/05/17 10:46:00;;;;;;;18.57;2.30;;;26.00;99.90;;;;;;5097179;28;20218;-87
2022/05/17 10:48:39;;;;;;;3.83;1.97;;;25.80;99.90;;;;;;5096935;28;20228;-87
2022/05/17 10:51:11;;;;;;;4.10;1.90;;;26.00;99.90;;;;;;5096726;28;20200;-87
2022/05/17 10:53:51;;;;;;;4.50;2.00;;;25.90;99.90;;;;;;5096920;28;20205;-87
2022/05/17 10:56:30;;;;;;;4.60;2.43;;;25.90;99.90;;;;;;5097031;28;20227;-86
2022/05/17 10:59:13;;;;;;;2.97;2.13;;;25.70;99.90;;;;;;5096154;28;20213;-90
2022/05/17 11:01:47;;;;;;;3.93;2.10;;;25.90;99.90;;;;;;5096963;28;20579;-88
2022/05/17 11:04:57;;;;;;;4.83;2.07;;;26.10;99.90;;;;;;5096897;28;20205;-89
2022/05/17 11:07:32;;;;;;;3.17;2.00;;;26.10;99.90;;;;;;5095453;28;20225;-89
2022/05/17 11:10:06;;;;;;;5.43;2.23;;;26.30;99.90;;;;;;5097233;28;20564;-91
2022/05/17 11:12:41;;;;;;;2.60;2.07;;;26.30;99.90;;;;;;5096437;28;20201;-86
2022/05/17 11:15:15;;;;;;;9.07;2.53;;;26.40;99.90;;;;;;5096177;28;20678;-87
2022/05/17 11:17:50;;;;;;;6.40;2.30;;;26.50;99.90;;;;;;5096215;28;20205;-85
2022/05/17 11:20:23;;;;;;;12.87;2.17;;;26.70;99.90;;;;;;5096698;28;20192;-86
2022/05/17 11:22:58;;;;;;;5.80;2.40;;;26.60;99.60;;;;;;5096374;28;20209;-85
2022/05/17 11:25:44;;;;;;;3.87;2.07;;;26.60;99.90;;;;;;5095938;28;20205;-88
2022/05/17 11:28:46;;;;;;;3.87;2.00;;;26.40;99.90;;;;;;5096219;28;20216;-88
2022/05/17 11:31:18;;;;;;;5.33;2.20;;;26.60;99.70;;;;;;5074104;28;20208;-87
2022/05/17 11:33:46;;;;;;;5.60;2.37;;;26.70;99.90;;;;;;5092225;28;20221;-87
2022/05/17 11:36:34;;;;;;;6.90;2.40;;;26.70;99.90;;;;;;5096669;28;20212;-87
2022/05/17 11:39:03;;;;;;;3.70;2.33;;;26.30;99.90;;;;;;5096141;28;20208;-88
2022/05/17 11:41:44;;;;;;;4.80;2.23;;;26.20;99.90;;;;;;5096209;28;20185;-91
2022/05/17 11:44:26;;;;;;;3.67;2.47;;;26.40;99.90;;;;;;5096050;28;20200;-86
2022/05/17 11:46:58;;;;;;;9.57;2.20;;;26.50;99.40;;;;;;5095215;28;20557;-82
2022/05/17 11:49:29;;;;;;;5.47;2.33;;;26.50;99.90;;;;;;5096324;28;20729;-83
2022/05/17 11:52:25;;;;;;;3.17;1.98;;;26.50;99.90;;;;;;5094656;28;20894;-85
2022/05/17 11:54:55;;;;;;;5.73;2.10;;;26.60;99.60;;;;;;5094183;28;20209;-84
2022/05/17 11:57:58;;;;;;;14.30;2.50;;;26.30;98.50;;;;;;5092469;28;20202;-85
2022/05/17 12:00:44;;;;;;;4.40;1.90;;;26.20;98.70;;;;;;5093029;28;20201;-83
2022/05/17 12:03:46;;;;;;;5.70;1.90;;;26.20;98.20;;;;;;5087784;28;20580;-81
2022/05/17 12:06:44;;;;;;;5.20;1.73;;;26.60;98.30;;;;;;5072065;28;20211;-83
2022/05/17 12:09:14;;;;;;;2.90;1.87;;;26.70;98.60;;;;;;5093758;28;20225;-82
2022/05/17 12:12:01;;;;;;;11.33;2.07;;;26.70;98.10;;;;;;5091087;28;20193;-81
2022/05/17 12:14:34;;;;;;;4.63;1.73;;;26.50;98.30;;;;;;5086635;28;20201;-83
2022/05/17 12:17:04;;;;;;;3.20;1.90;;;26.20;99.00;;;;;;5094796;28;20200;-85
2022/05/17 12:19:40;;;;;;;2.67;1.80;;;26.30;99.80;;;;;;5095080;28;20193;-84
2022/05/17 12:22:13;;;;;;;3.33;1.60;;;26.50;99.40;;;;;;5095164;28;20189;-84
2022/05/17 12:25:06;;;;;;;4.70;2.10;;;26.30;99.30;;;;;;5093664;28;20209;-85
2022/05/17 12:27:41;;;;;;;1.90;1.60;;;26.30;99.70;;;;;;5081010;28;20229;-84
2022/05/17 12:33:05;;;;;;;2.93;1.70;;;26.70;98.90;;;;;;5094649;28;20220;-83
2022/05/17 12:35:32;;;;;;;3.97;1.50;;;26.90;98.10;;;;;;5086314;28;20210;-84
2022/05/17 12:37:58;;;;;;;3.50;1.90;;;26.90;97.60;;;;;;5087641;28;20664;-85
2022/05/17 12:43:15;;;;;;;3.17;1.63;;;27.10;97.40;;;;;;5091212;28;20216;-85
2022/05/17 12:45:45;;;;;;;3.03;1.67;;;27.00;97.90;;;;;;5091879;28;20568;-85
2022/05/17 12:48:16;;;;;;;3.97;1.67;;;27.20;97.90;;;;;;5094170;28;20233;-82
2022/05/17 12:50:46;;;;;;;2.80;1.50;;;27.40;97.10;;;;;;5093388;28;20201;-84
2022/05/17 12:53:21;;;;;;;3.20;1.70;;;27.20;95.00;;;;;;5093373;28;20202;-85
2022/05/17 12:56:07;;;;;;;3.97;1.70;;;27.20;95.30;;;;;;5091070;28;20197;-82
2022/05/17 12:58:38;;;;;;;3.43;1.90;;;27.30;95.20;;;;;;5084757;28;20280;-84
2022/05/17 13:01:08;;;;;;;6.63;2.22;;;27.20;95.60;;;;;;5091414;28;20325;-84
2022/05/17 13:03:35;;;;;;;6.97;2.07;;;27.30;95.70;;;;;;5085192;28;20197;-85
2022/05/17 13:06:06;;;;;;;3.97;1.60;;;27.20;95.10;;;;;;5093551;28;20205;-86
2022/05/17 13:08:36;;;;;;;7.30;2.33;;;27.20;95.30;;;;;;5092464;28;20233;-85
2022/05/17 13:11:09;;;;;;;6.03;1.33;;;27.40;94.10;;;;;;5080203;28;20691;-85
2022/05/17 13:13:39;;;;;;;8.00;1.85;;;27.50;94.40;;;;;;5088054;28;20656;-85
2022/05/17 13:16:11;;;;;;;3.40;1.50;;;27.40;93.70;;;;;;5093578;28;20212;-87
2022/05/17 13:18:41;;;;;;;3.78;1.52;;;27.30;94.70;;;;;;5093208;28;20203;-85
2022/05/17 13:21:20;;;;;;;5.97;1.52;;;27.20;94.70;;;;;;5092895;28;20241;-85
2022/05/17 13:23:47;;;;;;;5.13;1.53;;;27.30;93.40;;;;;;5093176;28;20205;-86
2022/05/17 13:26:28;;;;;;;5.15;1.50;;;27.50;91.50;;;;;;5105567;28;20196;-85